Gentle Leader — C6WY9 — position and weather

sailwx.info

Track history (hours):
 
Tides and Currents Weather Stations Pressure Air Temp Water Temp Dewpoint Dewpoint Depression Visibility Wind Speed Wind Dir Waves Ship Positions

Gentle Leader

Last reported at 2016-May-20 15:12 UTC. Time now 2016-May-25 20:43 UTC.
Position S 34°05' E 017°48'.

Length 200 m; draft 9.1 m.

Type: Cargo ship. MMSI: 311003300.

Date/timePositionNaut miles runAvg speedWind from/ knotsBaromVisibWave heightAir tempDewpointWater temp
2016-May-20 15:12S 34°05' E 017°48'1015.9
2016-May-20 14:33S 34°13' E 017°55'  
2016-May-15 22:28S 30°14' E 030°60'1415.4
2016-May-15 21:34S 30°02' E 031°06'1010.4
2016-May-15 20:33S 29°51' E 031°04'2 2.1
2016-May-15 19:33S 29°52' E 031°02'0 0.0
2016-May-15 18:33S 29°52' E 031°02'0 0.0
2016-May-15 17:30S 29°52' E 031°02'0 0.0
2016-May-15 16:33S 29°52' E 031°02'0 0.0
2016-May-15 15:33S 29°52' E 031°02'0 0.0
2016-May-15 14:33S 29°52' E 031°02'0 0.0
2016-May-15 13:30S 29°52' E 031°02'0 0.0
2016-May-15 12:30S 29°52' E 031°02'0 0.0
2016-May-15 11:33S 29°52' E 031°02'0 0.0
2016-May-15 10:24S 29°52' E 031°02'0 0.0
2016-May-15 09:30S 29°52' E 031°02'0 0.0
2016-May-15 08:30S 29°52' E 031°02'0 0.0
2016-May-15 07:30S 29°52' E 031°02'0 0.0
2016-May-15 06:30S 29°52' E 031°02'0 0.0
2016-May-15 05:30S 29°52' E 031°02'0 0.0
2016-May-15 04:33S 29°52' E 031°02'0 0.0
2016-May-15 03:30S 29°52' E 031°02'0 0.0
2016-May-15 02:30S 29°52' E 031°02'0 0.0
2016-May-15 01:30S 29°52' E 031°02'0 0.0
2016-May-15 00:33S 29°52' E 031°02'0 0.0
2016-May-14 23:30S 29°52' E 031°02'0 0.0
2016-May-14 22:33S 29°52' E 031°02'0 0.0
2016-May-14 21:30S 29°52' E 031°02'0 0.0
2016-May-14 20:30S 29°52' E 031°02'0 0.0
2016-May-14 19:30S 29°52' E 031°02'0 0.0
2016-May-14 18:30S 29°52' E 031°02'0 0.0
2016-May-14 17:30S 29°52' E 031°02'0 0.0
2016-May-14 16:30S 29°52' E 031°02'0 0.0
2016-May-14 15:30S 29°52' E 031°02'0 0.0
2016-May-14 14:30S 29°52' E 031°02'0 0.0
2016-May-14 13:30S 29°52' E 031°02'1 1.4
2016-May-14 12:33S 29°52' E 031°03'6 6.2
2016-May-14 11:33S 29°47' E 031°07'3 3.5
2016-May-14 10:33S 29°45' E 031°10'7 7.1
2016-May-14 09:33S 29°39' E 031°14'1 0.7
2016-May-14 08:33S 29°40' E 031°14'1 1.4
2016-May-14 07:33S 29°41' E 031°14'0 0.1
2016-May-14 06:33S 29°41' E 031°14'1 1.4
2016-May-14 05:33S 29°40' E 031°14'1 0.7
2016-May-14 04:33S 29°40' E 031°14'0 0.4
2016-May-14 03:33S 29°40' E 031°14'1 0.6
2016-May-14 02:33S 29°40' E 031°14'1 1.3
2016-May-14 01:33S 29°39' E 031°13'0 0.2
2016-May-14 00:33S 29°39' E 031°14'1 1.2
2016-May-13 23:33S 29°40' E 031°14'7 6.1
2016-May-13 22:28S 29°41' E 031°22'16 5.0
2016-May-13 19:13S 29°36' E 031°39'1 1.0
2016-May-13 18:29S 29°36' E 031°40'1 0.8
2016-May-13 17:24S 29°35' E 031°41'13 1.9
2016-May-13 10:27S 29°48' E 031°38'3 3.3
2016-May-13 09:33S 29°51' E 031°36'2 1.7
2016-May-13 08:27S 29°50' E 031°38'2 1.7
2016-May-13 07:33S 29°49' E 031°39'  
Track history (hours):
 
Tides and Currents Weather Stations Pressure Air Temp Water Temp Dewpoint Dewpoint Depression Visibility Wind Speed Wind Dir Waves Ship Positions

Gentle Leader

Last reported at 2016-May-20 15:12 UTC. Time now 2016-May-25 20:43 UTC.
Position S 34°05' E 017°48'.

Length 200 m; draft 9.1 m.

Type: Cargo ship. MMSI: 311003300.

Date/timePositionNaut miles runAvg speedWind from/ knotsBaromVisibWave heightAir tempDewpointWater temp
2016-May-20 15:12S 34°05' E 017°48'1015.9
2016-May-20 14:33S 34°13' E 017°55'  
2016-May-15 22:28S 30°14' E 030°60'1415.4
2016-May-15 21:34S 30°02' E 031°06'1010.4
2016-May-15 20:33S 29°51' E 031°04'2 2.1
2016-May-15 19:33S 29°52' E 031°02'0 0.0
2016-May-15 18:33S 29°52' E 031°02'0 0.0
2016-May-15 17:30S 29°52' E 031°02'0 0.0
2016-May-15 16:33S 29°52' E 031°02'0 0.0
2016-May-15 15:33S 29°52' E 031°02'0 0.0
2016-May-15 14:33S 29°52' E 031°02'0 0.0
2016-May-15 13:30S 29°52' E 031°02'0 0.0
2016-May-15 12:30S 29°52' E 031°02'0 0.0
2016-May-15 11:33S 29°52' E 031°02'0 0.0
2016-May-15 10:24S 29°52' E 031°02'0 0.0
2016-May-15 09:30S 29°52' E 031°02'0 0.0
2016-May-15 08:30S 29°52' E 031°02'0 0.0
2016-May-15 07:30S 29°52' E 031°02'0 0.0
2016-May-15 06:30S 29°52' E 031°02'0 0.0
2016-May-15 05:30S 29°52' E 031°02'0 0.0
2016-May-15 04:33S 29°52' E 031°02'0 0.0
2016-May-15 03:30S 29°52' E 031°02'0 0.0
2016-May-15 02:30S 29°52' E 031°02'0 0.0
2016-May-15 01:30S 29°52' E 031°02'0 0.0
2016-May-15 00:33S 29°52' E 031°02'0 0.0
2016-May-14 23:30S 29°52' E 031°02'0 0.0
2016-May-14 22:33S 29°52' E 031°02'0 0.0
2016-May-14 21:30S 29°52' E 031°02'0 0.0
2016-May-14 20:30S 29°52' E 031°02'0 0.0
2016-May-14 19:30S 29°52' E 031°02'0 0.0
2016-May-14 18:30S 29°52' E 031°02'0 0.0
2016-May-14 17:30S 29°52' E 031°02'0 0.0
2016-May-14 16:30S 29°52' E 031°02'0 0.0
2016-May-14 15:30S 29°52' E 031°02'0 0.0
2016-May-14 14:30S 29°52' E 031°02'0 0.0
2016-May-14 13:30S 29°52' E 031°02'1 1.4
2016-May-14 12:33S 29°52' E 031°03'6 6.2
2016-May-14 11:33S 29°47' E 031°07'3 3.5
2016-May-14 10:33S 29°45' E 031°10'7 7.1
2016-May-14 09:33S 29°39' E 031°14'1 0.7
2016-May-14 08:33S 29°40' E 031°14'1 1.4
2016-May-14 07:33S 29°41' E 031°14'0 0.1
2016-May-14 06:33S 29°41' E 031°14'1 1.4
2016-May-14 05:33S 29°40' E 031°14'1 0.7
2016-May-14 04:33S 29°40' E 031°14'0 0.4
2016-May-14 03:33S 29°40' E 031°14'1 0.6
2016-May-14 02:33S 29°40' E 031°14'1 1.3
2016-May-14 01:33S 29°39' E 031°13'0 0.2
2016-May-14 00:33S 29°39' E 031°14'1 1.2
2016-May-13 23:33S 29°40' E 031°14'7 6.1
2016-May-13 22:28S 29°41' E 031°22'16 5.0
2016-May-13 19:13S 29°36' E 031°39'1 1.0
2016-May-13 18:29S 29°36' E 031°40'1 0.8
2016-May-13 17:24S 29°35' E 031°41'13 1.9
2016-May-13 10:27S 29°48' E 031°38'3 3.3
2016-May-13 09:33S 29°51' E 031°36'2 1.7
2016-May-13 08:27S 29°50' E 031°38'2 1.7
2016-May-13 07:33S 29°49' E 031°39'  

Dump ship's entire track history